Terminal Aerodrome Forecast
Issued by NWS Greer, SC

Home | Current Version | Previous Version | Text Only | Print | Product List | Glossary On
Versions: 1 2 3 4 5 6 7 8 9 10 11 12 13 14 15
141
FTUS42 KGSP 300532
TAFGSP
TAF
KGSP 300532Z 3006/3106 24003KT P6SM FEW110 SCT180
     FM301900 23007KT P6SM SCT070 PROB30 3021/3024 4SM -TSRA
      BKN050CB
     FM310200 23003KT P6SM SCT070=

USA.gov is the U.S. government's official web portal to all federal, state and local government web resources and services.